Time;durP1;ratioP1;P1;durP2;ratioP2;P2;SDS_P1;SDS_P2;PMS_P1;PMS_P2;Temp;Humidity;BMP_temperature;BMP_pressure;BME280_temperature;BME280_humidity;BME280_pressure;Samples;Min_cycle;Max_cycle;Signal;HPM_P1;HPM_P2
2022/02/02 00:02:31;;;;;;;;;;;11.40;99.90;;;;;;5089400;28;20324;-75
2022/02/02 00:05:12;;;;;;;;;;;11.40;99.90;;;;;;5089380;28;19912;-75
2022/02/02 00:07:50;;;;;;;;;;;11.40;99.90;;;;;;5089419;28;19920;-75
2022/02/02 00:10:41;;;;;;;;;;;11.40;99.90;;;;;;5089276;28;19923;-75
2022/02/02 00:16:03;;;;;;;;;;;11.30;99.90;;;;;;5078346;28;20449;-75
2022/02/02 00:21:02;;;;;;;;;;;11.30;99.90;;;;;;5089091;28;19912;-75
2022/02/02 00:23:38;;;;;;;;;;;11.30;99.90;;;;;;5088000;28;19972;-75
2022/02/02 00:26:09;;;;;;;;;;;11.30;99.90;;;;;;5089107;28;19908;-74
2022/02/02 00:28:39;;;;;;;;;;;11.30;99.90;;;;;;5087736;28;19932;-74
2022/02/02 00:31:09;;;;;;;;;;;11.30;99.90;;;;;;5087613;28;20484;-74
2022/02/02 00:33:42;;;;;;;;;;;11.20;99.90;;;;;;5088839;28;20388;-74
2022/02/02 00:36:19;;;;;;;;;;;11.20;99.90;;;;;;5088669;28;19962;-74
2022/02/02 00:38:45;;;;;;;;;;;11.20;99.90;;;;;;5087221;28;19915;-74
2022/02/02 00:41:10;;;;;;;;;;;11.10;99.90;;;;;;5087359;28;19912;-74
2022/02/02 00:43:39;;;;;;;;;;;11.10;99.90;;;;;;5088563;28;19908;-75
2022/02/02 00:46:04;;;;;;;;;;;11.10;99.90;;;;;;5087138;28;19935;-74
2022/02/02 00:48:32;;;;;;;;;;;11.00;99.90;;;;;;5086988;28;20365;-74
2022/02/02 00:50:58;;;;;;;;;;;11.00;99.90;;;;;;5087249;28;19920;-74
2022/02/02 00:53:23;;;;;;;;;;;11.00;99.90;;;;;;5087393;28;19919;-74
2022/02/02 00:55:50;;;;;;;;;;;11.00;99.90;;;;;;5087148;28;19958;-74
2022/02/02 00:58:16;;;;;;;;;;;11.00;99.90;;;;;;5088504;28;20294;-74
2022/02/02 01:00:42;;;;;;;;;;;11.00;99.90;;;;;;5088368;28;20018;-69
2022/02/02 01:03:07;;;;;;;;;;;11.00;99.90;;;;;;5088228;28;19916;-74
2022/02/02 01:05:33;;;;;;;;;;;11.00;99.90;;;;;;5088342;28;19912;-74
2022/02/02 01:18:34;;;;;;;;;;;11.00;99.90;;;;;;5088461;28;19958;-74
2022/02/02 01:21:03;;;;;;;;;;;11.00;99.90;;;;;;5088218;28;20343;-74
2022/02/02 01:28:57;;;;;;;;;;;10.90;99.90;;;;;;5088104;28;19957;-74
2022/02/02 01:31:23;;;;;;;;;;;10.80;99.90;;;;;;5087972;28;20362;-74
2022/02/02 01:33:49;;;;;;;;;;;10.80;99.90;;;;;;5086646;28;19931;-74
2022/02/02 01:36:15;;;;;;;;;;;10.70;99.90;;;;;;5088065;28;19912;-74
2022/02/02 01:38:42;;;;;;;;;;;10.70;99.90;;;;;;5086643;28;20347;-74
2022/02/02 01:41:15;;;;;;;;;;;10.60;99.90;;;;;;5087915;28;19918;-75
2022/02/02 01:43:48;;;;;;;;;;;10.50;99.90;;;;;;5087964;28;19958;-74
2022/02/02 01:46:18;;;;;;;;;;;10.30;99.90;;;;;;5087943;28;19959;-74
2022/02/02 01:48:59;;;;;;;;;;;10.20;99.90;;;;;;5087843;28;19912;-74
2022/02/02 01:56:51;;;;;;;;;;;10.00;99.90;;;;;;5045003;28;19999;-75
2022/02/02 02:01:42;;;;;;;;;;;9.90;99.90;;;;;;5087755;28;19919;-75
2022/02/02 02:04:08;;;;;;;;;;;9.90;99.90;;;;;;5087719;28;19912;-74
2022/02/02 02:06:34;;;;;;;;;;;9.90;99.90;;;;;;5087753;28;19916;-74
2022/02/02 02:08:59;;;;;;;;;;;9.90;99.90;;;;;;5087716;28;19919;-74
2022/02/02 02:11:25;;;;;;;;;;;9.90;99.90;;;;;;5087629;28;20330;-74
2022/02/02 02:16:31;;;;;;;;;;;9.90;99.90;;;;;;5088344;28;19965;-74
2022/02/02 02:18:58;;;;;;;;;;;9.90;99.90;;;;;;5087517;28;20316;-74
2022/02/02 02:21:24;;;;;;;;;;;9.80;99.90;;;;;;5086222;28;20352;-74
2022/02/02 02:23:50;;;;;;;;;;;9.80;99.90;;;;;;5087595;28;19999;-74
2022/02/02 02:26:25;;;;;;;;;;;9.80;99.90;;;;;;5087645;28;19912;-74
2022/02/02 02:31:54;;;;;;;;;;;9.90;99.90;;;;;;5088235;28;19923;-74
2022/02/02 02:55:50;;;;;;;;;;;10.40;99.90;;;;;;5091633;28;19923;-74
2022/02/02 03:30:21;;;;;;;;;;;10.30;99.90;;;;;;5090161;28;19935;-74
2022/02/02 03:49:33;;;;;;;;;;;10.10;99.90;;;;;;5090117;28;20007;-75
2022/02/02 03:55:02;;;;;;;;;;;10.00;99.90;;;;;;5090197;28;19969;-74
2022/02/02 03:58:14;;;;;;;;;;;10.10;99.90;;;;;;5089596;28;20401;-74
2022/02/02 04:08:24;;;;;;;;;;;10.20;99.90;;;;;;5089516;28;19913;-74
2022/02/02 04:10:50;;;;;;;;;;;10.20;99.90;;;;;;5089319;28;19912;-75
2022/02/02 04:59:25;;;;;;;;;;;9.30;99.90;;;;;;5087525;28;19913;-74
2022/02/02 05:07:07;;;;;;;;;;;9.20;99.90;;;;;;5088345;28;20422;-74
2022/02/02 05:09:51;;;;;;;;;;;9.20;99.90;;;;;;5088356;28;20390;-75
2022/02/02 05:17:42;;;;;;;;;;;9.10;99.90;;;;;;5088245;28;19908;-75
2022/02/02 05:52:55;;;;;;;;;;;9.40;99.90;;;;;;5065154;28;19977;-75
2022/02/02 05:55:20;;;;;;;;;;;9.40;99.90;;;;;;5071399;28;19912;-74
2022/02/02 05:57:46;;;;;;;;;;;9.50;99.90;;;;;;5087489;28;19912;-75
2022/02/02 06:00:13;;;;;;;;;;;9.50;99.90;;;;;;5086293;28;19913;-74
2022/02/02 06:02:39;;;;;;;;;;;9.50;99.90;;;;;;5087909;28;19915;-74
2022/02/02 06:05:07;;;;;;;;;;;9.60;99.90;;;;;;5088151;28;19908;-75
2022/02/02 06:07:37;;;;;;;;;;;9.60;99.90;;;;;;5087702;28;19909;-75
2022/02/02 06:10:04;;;;;;;;;;;9.70;99.90;;;;;;5088016;28;19914;-75
2022/02/02 06:12:30;;;;;;;;;;;9.70;99.90;;;;;;5089354;28;20013;-75
2022/02/02 06:14:56;;;;;;;;;;;9.70;99.90;;;;;;5091517;28;20377;-74
2022/02/02 06:17:23;;;;;;;;;;;9.80;99.90;;;;;;5091034;28;19919;-74
2022/02/02 06:19:48;;;;;;;;;;;9.80;99.90;;;;;;5091427;28;19912;-74
2022/02/02 06:22:21;;;;;;;;;;;9.90;99.90;;;;;;5091483;28;19912;-75
2022/02/02 06:24:48;;;;;;;;;;;9.90;99.90;;;;;;5089922;28;19908;-75
2022/02/02 06:27:22;;;;;;;;;;;10.00;99.90;;;;;;5091268;28;19993;-74
2022/02/02 06:29:51;;;;;;;;;;;10.00;99.90;;;;;;5089750;28;19928;-75
2022/02/02 06:32:21;;;;;;;;;;;10.00;99.90;;;;;;5089815;28;19915;-74
2022/02/02 06:34:47;;;;;;;;;;;10.00;99.90;;;;;;5091205;28;20282;-75
2022/02/02 06:37:13;;;;;;;;;;;10.00;99.90;;;;;;5091096;28;19934;-75
2022/02/02 06:39:39;;;;;;;;;;;10.10;99.90;;;;;;5091026;28;19916;-74
2022/02/02 06:42:09;;;;;;;;;;;10.10;99.90;;;;;;5091005;28;19931;-75
2022/02/02 06:44:39;;;;;;;;;;;10.10;99.90;;;;;;5090562;28;20019;-75
2022/02/02 06:47:05;;;;;;;;;;;10.10;99.90;;;;;;5090642;28;19908;-74
2022/02/02 06:49:31;;;;;;;;;;;10.10;99.90;;;;;;5089687;28;19912;-74
2022/02/02 06:52:12;;;;;;;;;;;10.20;99.90;;;;;;5090832;28;20014;-74
2022/02/02 06:54:48;;;;;;;;;;;10.20;99.90;;;;;;5090738;28;19922;-74
2022/02/02 06:57:22;;;;;;;;;;;10.20;99.90;;;;;;5090673;28;19919;-74
2022/02/02 07:00:09;;;;;;;;;;;10.20;99.90;;;;;;5090405;28;20012;-75
2022/02/02 07:02:48;;;;;;;;;;;10.20;99.90;;;;;;5090598;28;19915;-74
2022/02/02 07:05:35;;;;;;;;;;;10.30;99.90;;;;;;5090540;28;20370;-74
2022/02/02 07:11:09;;;;;;;;;;;10.40;99.90;;;;;;5090575;28;19917;-74
2022/02/02 07:19:13;;;;;;;;;;;10.40;99.90;;;;;;5089733;28;19919;-74
2022/02/02 07:24:27;;;;;;;;;;;10.50;99.90;;;;;;5089639;28;19912;-74
2022/02/02 07:29:42;;;;;;;;;;;10.40;99.90;;;;;;5089519;28;19939;-74
2022/02/02 07:34:48;;;;;;;;;;;10.40;99.90;;;;;;5091444;28;19922;-75
2022/02/02 07:37:26;;;;;;;;;;;10.40;99.90;;;;;;5090748;28;19912;-75
2022/02/02 07:39:54;;;;;;;;;;;10.40;99.90;;;;;;5089692;28;20009;-75
2022/02/02 07:42:20;;;;;;;;;;;10.40;99.90;;;;;;5089887;28;19912;-75
2022/02/02 07:44:47;;;;;;;;;;;10.40;99.90;;;;;;5089826;28;19982;-74
2022/02/02 07:47:14;;;;;;;;;;;10.30;99.90;;;;;;5089718;28;19914;-75
2022/02/02 07:49:44;;;;;;;;;;;10.30;99.90;;;;;;5089566;28;19909;-75
2022/02/02 07:52:11;;;;;;;;;;;10.30;99.90;;;;;;5089425;28;19919;-75
2022/02/02 07:54:40;;;;;;;;;;;10.30;99.90;;;;;;5088054;28;20089;-73
2022/02/02 07:57:14;;;;;;;;;;;10.30;99.90;;;;;;5088807;28;20032;-75
2022/02/02 08:02:10;;;;;;;;;;;10.30;99.90;;;;;;5089387;28;19931;-75
2022/02/02 08:04:36;;;;;;;;;;;10.30;99.90;;;;;;5089239;28;19934;-75
2022/02/02 08:07:02;;;;;;;;;;;10.30;99.90;;;;;;5087767;28;20366;-75
2022/02/02 08:11:57;;;;;;;;;;;10.30;99.90;;;;;;5088704;28;19908;-74
2022/02/02 08:14:24;;;;;;;;;;;10.40;99.90;;;;;;5089113;28;20071;-75
2022/02/02 08:16:50;;;;;;;;;;;10.40;99.90;;;;;;5087696;28;20374;-75
2022/02/02 08:19:17;;;;;;;;;;;10.30;99.90;;;;;;5089064;28;19916;-75
2022/02/02 08:21:43;;;;;;;;;;;10.30;99.90;;;;;;5089082;28;20002;-75
2022/02/02 08:24:09;;;;;;;;;;;10.30;99.90;;;;;;5087594;28;19956;-75
2022/02/02 08:26:35;;;;;;;;;;;10.30;99.90;;;;;;5087359;28;19912;-75
2022/02/02 08:29:01;;;;;;;;;;;10.30;99.90;;;;;;5088016;28;19923;-74
2022/02/02 08:31:27;;;;;;;;;;;10.30;99.90;;;;;;5087405;28;19920;-74
2022/02/02 08:33:57;;;;;;;;;;;10.30;99.90;;;;;;5088507;28;19908;-74
2022/02/02 08:36:22;;;;;;;;;;;10.30;99.90;;;;;;5087664;28;20080;-76
2022/02/02 08:39:10;;;;;;;;;;;10.30;99.90;;;;;;5087787;28;19981;-75
2022/02/02 08:41:41;;;;;;;;;;;10.30;99.90;;;;;;5087736;28;19912;-75
2022/02/02 08:44:16;;;;;;;;;;;10.40;99.90;;;;;;5087928;28;19969;-75
2022/02/02 08:46:47;;;;;;;;;;;10.40;99.90;;;;;;5086733;28;19912;-75
2022/02/02 08:49:15;;;;;;;;;;;10.40;99.90;;;;;;5070491;28;19934;-75
2022/02/02 08:51:44;;;;;;;;;;;10.50;99.90;;;;;;5087772;28;19919;-74
2022/02/02 08:59:28;;;;;;;;;;;10.60;99.90;;;;;;5087711;28;20319;-75
2022/02/02 09:01:57;;;;;;;;;;;10.60;99.90;;;;;;5087574;28;20222;-75
2022/02/02 09:07:08;;;;;;;;;;;10.60;99.90;;;;;;5088205;28;20273;-75
2022/02/02 09:35:50;;;;;;;;;;;11.10;99.90;;;;;;5084995;28;19923;-75
2022/02/02 09:38:16;;;;;;;;;;;11.20;99.90;;;;;;5085673;28;20255;-75
2022/02/02 09:43:16;;;;;;;;;;;11.40;99.90;;;;;;5087423;28;19951;-75
2022/02/02 09:45:43;;;;;;;;;;;11.40;99.90;;;;;;5069557;28;19912;-75
2022/02/02 09:48:15;;;;;;;;;;;11.50;99.90;;;;;;5091137;28;19936;-75
2022/02/02 09:50:49;;;;;;;;;;;11.50;99.90;;;;;;5091131;28;19912;-75
2022/02/02 09:53:21;;;;;;;;;;;11.60;99.90;;;;;;5091046;28;19916;-76
2022/02/02 09:55:57;;;;;;;;;;;11.60;99.90;;;;;;5087915;28;19916;-75
2022/02/02 10:01:42;;;;;;;;;;;11.70;99.90;;;;;;5088869;28;19998;-75
2022/02/02 10:04:25;;;;;;;;;;;11.70;99.90;;;;;;5103728;28;20231;-74
2022/02/02 10:07:22;;;;;;;;;;;11.70;99.90;;;;;;5087510;28;19916;-75
2022/02/02 10:15:23;;;;;;;;;;;11.70;99.90;;;;;;5092821;28;19908;-75
2022/02/02 10:17:59;;;;;;;;;;;11.80;99.90;;;;;;5092143;28;19919;-75
2022/02/02 10:20:26;;;;;;;;;;;11.80;99.90;;;;;;5090354;28;19962;-74
2022/02/02 10:22:56;;;;;;;;;;;11.80;99.90;;;;;;5090318;28;20045;-75
2022/02/02 10:25:26;;;;;;;;;;;11.90;99.90;;;;;;5091655;28;19908;-73
2022/02/02 10:27:52;;;;;;;;;;;11.90;99.90;;;;;;5091611;28;19916;-75
2022/02/02 10:30:19;;;;;;;;;;;11.90;99.90;;;;;;5091467;28;19932;-75
2022/02/02 10:32:47;;;;;;;;;;;11.90;99.90;;;;;;5091935;28;20413;-74
2022/02/02 10:35:31;;;;;;;;;;;11.90;99.90;;;;;;5091391;28;20247;-75
2022/02/02 10:38:00;;;;;;;;;;;11.90;99.90;;;;;;5091983;28;19967;-76
2022/02/02 10:40:39;;;;;;;;;;;11.90;99.90;;;;;;5091564;28;20271;-76
2022/02/02 10:43:18;;;;;;;;;;;12.00;99.90;;;;;;5091803;28;20289;-75
2022/02/02 10:45:44;;;;;;;;;;;12.00;99.90;;;;;;5091273;28;19919;-74
2022/02/02 10:48:18;;;;;;;;;;;12.00;99.90;;;;;;5090386;28;19912;-74
2022/02/02 10:50:58;;;;;;;;;;;12.00;99.90;;;;;;5091585;28;20011;-76
2022/02/02 10:56:31;;;;;;;;;;;12.20;99.90;;;;;;5090149;28;19916;-75
2022/02/02 11:07:05;;;;;;;;;;;12.40;99.90;;;;;;5091163;28;20015;-76
2022/02/02 11:09:31;;;;;;;;;;;12.50;99.90;;;;;;5093797;28;19973;-76
2022/02/02 11:11:57;;;;;;;;;;;12.60;99.90;;;;;;5093651;28;19908;-75
2022/02/02 11:14:34;;;;;;;;;;;12.70;99.90;;;;;;5091816;28;19922;-76
2022/02/02 11:17:06;;;;;;;;;;;12.70;99.90;;;;;;5091624;28;20043;-77
2022/02/02 11:19:34;;;;;;;;;;;12.70;99.90;;;;;;5088214;28;19915;-75
2022/02/02 11:22:18;;;;;;;;;;;12.70;99.90;;;;;;5091674;28;19914;-74
2022/02/02 11:24:44;;;;;;;;;;;12.70;99.90;;;;;;5093015;28;19908;-76
2022/02/02 11:27:29;;;;;;;;;;;12.70;99.90;;;;;;5093442;28;20455;-77
2022/02/02 11:29:55;;;;;;;;;;;12.70;99.90;;;;;;5093163;28;19999;-74
2022/02/02 11:32:20;;;;;;;;;;;12.70;99.90;;;;;;5093417;28;19974;-74
2022/02/02 11:34:46;;;;;;;;;;;12.70;99.90;;;;;;5092209;28;19920;-74
2022/02/02 11:37:12;;;;;;;;;;;12.70;99.90;;;;;;5091847;28;20369;-74
2022/02/02 11:39:49;;;;;;;;;;;12.70;99.90;;;;;;5092346;28;20262;-76
2022/02/02 11:42:41;;;;;;;;;;;12.70;99.90;;;;;;5090847;28;19912;-75
2022/02/02 11:45:37;;;;;;;;;;;12.60;99.90;;;;;;5084120;28;19920;-75
2022/02/02 11:48:20;;;;;;;;;;;12.70;99.90;;;;;;5086295;28;19982;-76
2022/02/02 11:50:51;;;;;;;;;;;12.70;99.90;;;;;;5091474;28;19916;-78
2022/02/02 11:53:35;;;;;;;;;;;12.80;99.90;;;;;;5087899;28;20263;-75
2022/02/02 11:56:04;;;;;;;;;;;12.80;99.90;;;;;;5087094;28;19918;-74
2022/02/02 11:58:33;;;;;;;;;;;13.00;99.90;;;;;;5090476;28;19986;-76
2022/02/02 12:03:45;;;;;;;;;;;13.40;99.90;;;;;;5090427;28;19916;-75
2022/02/02 12:06:30;;;;;;;;;;;13.40;99.90;;;;;;5089713;28;19910;-77
2022/02/02 12:12:00;;;;;;;;;;;13.50;99.90;;;;;;5089288;28;20560;-76
2022/02/02 12:57:47;;;;;;;;;;;14.30;99.90;;;;;;5074448;28;19913;-77
2022/02/02 13:00:21;;;;;;;;;;;14.50;99.90;;;;;;5088661;28;20347;-76
2022/02/02 13:02:47;;;;;;;;;;;14.60;99.90;;;;;;5089556;28;20043;-77
2022/02/02 13:05:13;;;;;;;;;;;14.60;99.90;;;;;;5089177;28;19958;-76
2022/02/02 13:07:41;;;;;;;;;;;14.50;99.90;;;;;;5088607;28;20266;-75
2022/02/02 13:10:08;;;;;;;;;;;14.30;99.70;;;;;;5088424;28;20040;-74
2022/02/02 13:20:30;;;;;;;;;;;13.80;99.90;;;;;;5086083;28;19926;-76
2022/02/02 13:23:05;;;;;;;;;;;13.80;99.90;;;;;;5087416;28;19957;-76
2022/02/02 13:25:32;;;;;;;;;;;13.70;99.90;;;;;;5088718;28;19930;-75
2022/02/02 13:27:59;;;;;;;;;;;13.60;99.90;;;;;;5086489;28;19916;-75
2022/02/02 13:30:41;;;;;;;;;;;13.60;99.90;;;;;;5088182;28;19920;-75
2022/02/02 13:33:16;;;;;;;;;;;13.60;99.90;;;;;;5087729;28;20417;-74
2022/02/02 13:35:54;;;;;;;;;;;13.50;99.90;;;;;;5086447;28;19915;-75
2022/02/02 13:38:41;;;;;;;;;;;13.50;99.90;;;;;;5087880;28;19908;-75
2022/02/02 13:46:39;;;;;;;;;;;13.50;99.90;;;;;;5088054;28;20312;-74
2022/02/02 13:50:10;;;;;;;;;;;13.50;99.90;;;;;;5088057;28;20014;-74
2022/02/02 13:52:20;;;;;;;;;;;13.50;99.90;;;;;;5077177;28;19915;-75
2022/02/02 13:54:46;;;;;;;;;;;13.50;99.90;;;;;;5087954;28;19952;-76
2022/02/02 14:00:53;;;;;;;;;;;13.40;99.90;;;;;;5088992;28;19912;-76
2022/02/02 14:05:57;;;;;;;;;;;13.30;99.90;;;;;;5087506;28;19919;-75
2022/02/02 14:32:42;;;;;;;;;;;13.00;99.90;;;;;;5088037;28;19970;-75
2022/02/02 14:35:10;;;;;;;;;;;13.00;99.90;;;;;;5090578;28;19912;-74
2022/02/02 14:37:41;;;;;;;;;;;13.00;99.90;;;;;;5091532;28;19912;-74
2022/02/02 14:40:17;;;;;;;;;;;13.00;99.90;;;;;;5090209;28;19920;-74
2022/02/02 14:42:46;;;;;;;;;;;13.00;99.90;;;;;;5091569;28;19916;-74
2022/02/02 14:45:15;;;;;;;;;;;12.90;99.90;;;;;;5091579;28;19912;-76
2022/02/02 14:47:45;;;;;;;;;;;12.90;99.90;;;;;;5091415;28;19931;-76
2022/02/02 14:50:26;;;;;;;;;;;12.90;99.90;;;;;;5090571;28;19917;-76
2022/02/02 14:53:08;;;;;;;;;;;12.90;99.90;;;;;;5073482;28;20268;-74
2022/02/02 15:07:36;;;;;;;;;;;12.70;99.50;;;;;;5091406;28;19918;-77
2022/02/02 15:27:59;;;;;;;;;;;12.60;99.50;;;;;;5091766;28;20366;-76
2022/02/02 15:30:30;;;;;;;;;;;12.60;99.50;;;;;;5090210;28;19950;-76
2022/02/02 15:32:59;;;;;;;;;;;12.60;99.50;;;;;;5090421;28;20388;-76
2022/02/02 15:35:26;;;;;;;;;;;12.60;99.30;;;;;;5091196;28;19999;-75
2022/02/02 15:38:04;;;;;;;;;;;12.50;99.40;;;;;;5091292;28;19915;-77
2022/02/02 15:40:43;;;;;;;;;;;12.50;99.40;;;;;;5074286;28;19927;-76
2022/02/02 15:43:39;;;;;;;;;;;12.50;99.30;;;;;;5089704;28;20381;-78
2022/02/02 16:02:21;;;;;;;;;;;12.50;99.50;;;;;;5084947;28;19962;-77
2022/02/02 16:04:47;;;;;;;;;;;12.50;99.60;;;;;;5084088;28;19927;-75
2022/02/02 16:07:23;;;;;;;;;;;12.50;99.50;;;;;;5079531;28;19972;-75
2022/02/02 16:09:55;;;;;;;;;;;12.50;99.50;;;;;;5077480;28;19936;-76
2022/02/02 16:12:28;;;;;;;;;;;12.40;99.50;;;;;;5086479;28;19912;-76
2022/02/02 16:15:16;;;;;;;;;;;12.40;99.50;;;;;;5086904;28;19973;-75
2022/02/02 16:38:50;;;;;;;;;;;11.90;99.80;;;;;;5089469;28;19954;-74
2022/02/02 16:44:01;;;;;;;;;;;11.80;99.90;;;;;;5052839;28;19917;-76
2022/02/02 16:46:27;;;;;;;;;;;11.80;99.90;;;;;;5090080;28;19912;-75
2022/02/02 16:48:52;;;;;;;;;;;11.80;99.90;;;;;;5088871;28;19958;-74
2022/02/02 16:51:18;;;;;;;;;;;11.80;99.90;;;;;;5088664;28;19912;-76
2022/02/02 16:53:48;;;;;;;;;;;11.80;99.90;;;;;;5089991;28;20297;-75
2022/02/02 16:56:55;;;;;;;;;;;11.70;99.90;;;;;;5090201;28;19999;-78
2022/02/02 17:31:57;;;;;;;;;;;11.50;99.90;;;;;;5072591;28;19920;-76
2022/02/02 17:34:30;;;;;;;;;;;11.40;99.90;;;;;;5076006;28;19913;-74
2022/02/02 17:37:10;;;;;;;;;;;11.40;99.90;;;;;;5085303;28;19912;-76
2022/02/02 18:20:23;;;;;;;;;;;11.20;99.90;;;;;;5092353;28;19931;-76
2022/02/02 18:22:58;;;;;;;;;;;11.20;99.90;;;;;;5092137;28;19912;-77
2022/02/02 18:28:03;;;;;;;;;;;11.20;99.90;;;;;;5092549;28;19916;-76
2022/02/02 18:35:29;;;;;;;;;;;11.30;99.90;;;;;;5090816;28;20058;-75
2022/02/02 18:51:18;;;;;;;;;;;11.30;99.90;;;;;;5092270;28;19916;-76
2022/02/02 18:54:07;;;;;;;;;;;11.30;99.90;;;;;;5091558;28;20355;-76
2022/02/02 19:01:59;;;;;;;;;;;11.20;99.90;;;;;;5088758;28;19947;-74
2022/02/02 19:56:24;;;;;;;;;;;10.80;99.90;;;;;;5089459;28;20380;-75
2022/02/02 20:01:51;;;;;;;;;;;10.80;99.90;;;;;;5089051;28;19968;-74
2022/02/02 20:12:38;;;;;;;;;;;10.60;99.90;;;;;;5025827;28;19963;-75
2022/02/02 20:15:06;;;;;;;;;;;10.60;99.90;;;;;;5077457;28;19912;-75
2022/02/02 20:17:33;;;;;;;;;;;10.60;99.90;;;;;;5087498;28;19912;-75
2022/02/02 20:20:10;;;;;;;;;;;10.60;99.90;;;;;;5088632;28;19935;-75
2022/02/02 20:22:36;;;;;;;;;;;10.70;99.90;;;;;;5088977;28;20355;-75
2022/02/02 20:25:03;;;;;;;;;;;10.70;99.90;;;;;;5087412;28;19964;-75
2022/02/02 20:27:30;;;;;;;;;;;10.70;99.90;;;;;;5088762;28;19911;-75
2022/02/02 20:29:56;;;;;;;;;;;10.70;99.90;;;;;;5086752;28;20006;-75
2022/02/02 20:32:22;;;;;;;;;;;10.70;99.90;;;;;;5087931;28;20038;-75
2022/02/02 20:34:48;;;;;;;;;;;10.70;99.90;;;;;;5087253;28;20255;-75
2022/02/02 20:37:16;;;;;;;;;;;10.70;99.90;;;;;;5087431;28;20315;-75
2022/02/02 20:40:04;;;;;;;;;;;10.70;99.90;;;;;;5087278;28;19920;-75
2022/02/02 21:02:06;;;;;;;;;;;10.80;99.90;;;;;;5088570;28;19918;-75
2022/02/02 21:13:40;;;;;;;;;;;10.80;99.90;;;;;;5088574;28;19965;-75
2022/02/02 21:14:48;;;;;;;;;;;10.80;99.90;;;;;;5088357;28;19959;-75
2022/02/02 21:17:23;;;;;;;;;;;10.70;99.90;;;;;;5086858;28;19969;-75
2022/02/02 21:22:19;;;;;;;;;;;10.70;99.90;;;;;;5087839;28;19919;-76
2022/02/02 21:24:53;;;;;;;;;;;10.60;99.90;;;;;;5088234;28;20355;-76
2022/02/02 21:27:25;;;;;;;;;;;10.60;99.90;;;;;;5071436;28;19923;-75
2022/02/02 21:29:50;;;;;;;;;;;10.50;99.90;;;;;;5089139;28;20001;-75
2022/02/02 21:32:17;;;;;;;;;;;10.50;99.90;;;;;;5088695;28;20315;-75
2022/02/02 21:34:43;;;;;;;;;;;10.40;99.90;;;;;;5088360;28;19912;-75
2022/02/02 21:37:09;;;;;;;;;;;10.40;99.90;;;;;;5088435;28;19961;-75
2022/02/02 21:39:38;;;;;;;;;;;10.40;99.90;;;;;;5087794;28;19916;-75
2022/02/02 21:42:04;;;;;;;;;;;10.40;99.90;;;;;;5087823;28;20087;-75
2022/02/02 21:44:30;;;;;;;;;;;10.30;99.90;;;;;;5087992;28;19912;-75
2022/02/02 21:46:57;;;;;;;;;;;10.30;99.90;;;;;;5087949;28;19912;-75
2022/02/02 21:49:24;;;;;;;;;;;10.30;99.90;;;;;;5088048;28;20044;-75
2022/02/02 21:51:59;;;;;;;;;;;10.30;99.90;;;;;;5086406;28;20354;-75
2022/02/02 21:54:25;;;;;;;;;;;10.20;99.90;;;;;;5086172;28;19912;-75
2022/02/02 21:56:51;;;;;;;;;;;10.20;99.90;;;;;;5087527;28;19947;-75
2022/02/02 21:59:17;;;;;;;;;;;10.20;99.90;;;;;;5087910;28;19923;-75
2022/02/02 22:01:42;;;;;;;;;;;10.20;99.90;;;;;;5086283;28;20274;-75
2022/02/02 22:04:08;;;;;;;;;;;10.10;99.90;;;;;;5086632;28;19912;-75
2022/02/02 22:06:33;;;;;;;;;;;10.10;99.90;;;;;;5086150;28;19999;-76
2022/02/02 22:08:59;;;;;;;;;;;10.10;99.90;;;;;;5087388;28;20431;-76
2022/02/02 22:11:24;;;;;;;;;;;10.10;99.90;;;;;;5086309;28;20285;-75
2022/02/02 22:16:36;;;;;;;;;;;10.10;99.90;;;;;;5088523;28;19919;-75
2022/02/02 22:19:02;;;;;;;;;;;10.00;99.90;;;;;;5086749;28;19928;-75
2022/02/02 22:21:29;;;;;;;;;;;10.00;99.90;;;;;;5087707;28;19917;-75
2022/02/02 22:23:55;;;;;;;;;;;10.00;99.90;;;;;;5086382;28;20278;-76
2022/02/02 22:26:21;;;;;;;;;;;10.00;99.90;;;;;;5087635;28;19912;-75
2022/02/02 22:28:47;;;;;;;;;;;9.90;99.90;;;;;;5087566;28;19916;-75
2022/02/02 22:31:13;;;;;;;;;;;9.90;99.90;;;;;;5087450;28;19927;-75
2022/02/02 22:33:38;;;;;;;;;;;9.90;99.90;;;;;;5087537;28;19919;-76
2022/02/02 22:36:04;;;;;;;;;;;9.90;99.90;;;;;;5087649;28;19921;-75
2022/02/02 22:38:30;;;;;;;;;;;9.90;99.90;;;;;;5087908;28;19912;-75
2022/02/02 22:40:57;;;;;;;;;;;9.90;99.90;;;;;;5087402;28;19912;-75
2022/02/02 22:43:23;;;;;;;;;;;10.00;99.90;;;;;;5087468;28;19950;-75
2022/02/02 22:45:51;;;;;;;;;;;10.00;99.90;;;;;;5086010;28;19957;-75
2022/02/02 22:48:20;;;;;;;;;;;10.00;99.90;;;;;;5087348;28;20001;-75
2022/02/02 22:50:46;;;;;;;;;;;10.00;99.90;;;;;;5087092;28;19908;-76
2022/02/02 22:53:12;;;;;;;;;;;10.00;99.90;;;;;;5087419;28;19935;-76
2022/02/02 22:55:38;;;;;;;;;;;10.00;99.90;;;;;;5089301;28;20332;-75
2022/02/02 22:58:04;;;;;;;;;;;10.10;99.90;;;;;;5091031;28;20316;-75
2022/02/02 23:00:33;;;;;;;;;;;10.10;99.90;;;;;;5089462;28;19954;-75
2022/02/02 23:03:00;;;;;;;;;;;10.00;99.90;;;;;;5090815;28;19908;-76
2022/02/02 23:05:36;;;;;;;;;;;10.00;99.90;;;;;;5089384;28;19916;-75
2022/02/02 23:08:03;;;;;;;;;;;10.00;99.90;;;;;;5090842;28;20278;-75
2022/02/02 23:10:29;;;;;;;;;;;10.00;99.90;;;;;;5090842;28;19991;-75
2022/02/02 23:12:55;;;;;;;;;;;10.00;99.90;;;;;;5090508;28;20011;-75
2022/02/02 23:18:19;;;;;;;;;;;10.10;99.90;;;;;;5079894;28;19916;-75
2022/02/02 23:20:51;;;;;;;;;;;10.10;99.90;;;;;;5089253;28;19965;-75
2022/02/02 23:23:18;;;;;;;;;;;10.10;99.90;;;;;;5090515;28;19916;-76
2022/02/02 23:25:44;;;;;;;;;;;10.00;99.90;;;;;;5090616;28;19962;-76
2022/02/02 23:28:13;;;;;;;;;;;10.00;99.90;;;;;;5089136;28;19912;-76
2022/02/02 23:30:39;;;;;;;;;;;10.00;99.90;;;;;;5090070;28;19927;-75
2022/02/02 23:33:05;;;;;;;;;;;10.00;99.90;;;;;;5090322;28;20371;-76
2022/02/02 23:35:30;;;;;;;;;;;10.10;99.90;;;;;;5090768;28;19916;-76
2022/02/02 23:37:56;;;;;;;;;;;10.10;99.90;;;;;;5090251;28;19930;-75
2022/02/02 23:40:22;;;;;;;;;;;10.10;99.90;;;;;;5090100;28;19919;-75
2022/02/02 23:42:47;;;;;;;;;;;10.20;99.90;;;;;;5090141;28;19915;-75
2022/02/02 23:45:14;;;;;;;;;;;10.20;99.90;;;;;;5090007;28;19937;-75
2022/02/02 23:47:47;;;;;;;;;;;10.20;99.90;;;;;;5090112;28;19909;-75
2022/02/02 23:50:14;;;;;;;;;;;10.20;99.90;;;;;;5090029;28;19908;-75
2022/02/02 23:52:49;;;;;;;;;;;10.20;99.90;;;;;;5089746;28;19912;-75
2022/02/02 23:55:21;;;;;;;;;;;10.20;99.90;;;;;;5090044;28;19908;-75
